sensor_id;sensor_type;location;lat;lon;timestamp;P1;durP1;ratioP1;P2;durP2;ratioP2
54438;SDS011;40347;53.848;27.498;2022-10-31T00:03:47;1.8;;;0.7;;
54438;SDS011;40347;53.848;27.498;2022-10-31T00:08:53;2.4;;;0.8;;
54438;SDS011;40347;53.848;27.498;2022-10-31T00:13:59;2.2;;;0.8;;
54438;SDS011;40347;53.848;27.498;2022-10-31T00:18:59;1.8;;;0.8;;
54438;SDS011;40347;53.848;27.498;2022-10-31T00:24:10;3.9;;;0.9;;
54438;SDS011;40347;53.848;27.498;2022-10-31T00:28:47;1.4;;;0.6;;
54438;SDS011;40347;53.848;27.498;2022-10-31T00:33:47;1.9;;;0.7;;
54438;SDS011;40347;53.848;27.498;2022-10-31T00:38:57;1.8;;;0.7;;
54438;SDS011;40347;53.848;27.498;2022-10-31T00:43:59;1.6;;;0.7;;
54438;SDS011;40347;53.848;27.498;2022-10-31T00:48:47;1.8;;;0.7;;
54438;SDS011;40347;53.848;27.498;2022-10-31T00:53:47;2.1;;;0.7;;
54438;SDS011;40347;53.848;27.498;2022-10-31T00:59:31;1.7;;;0.7;;
54438;SDS011;40347;53.848;27.498;2022-10-31T01:03:47;1.8;;;0.7;;
54438;SDS011;40347;53.848;27.498;2022-10-31T01:08:59;3.5;;;0.7;;
54438;SDS011;40347;53.848;27.498;2022-10-31T01:14:07;1.3;;;0.6;;
54438;SDS011;40347;53.848;27.498;2022-10-31T01:18:47;3.9;;;0.8;;
54438;SDS011;40347;53.848;27.498;2022-10-31T01:23:53;2.9;;;0.8;;
54438;SDS011;40347;53.848;27.498;2022-10-31T01:28:47;2.4;;;0.9;;
54438;SDS011;40347;53.848;27.498;2022-10-31T01:34:23;2.8;;;1;;
54438;SDS011;40347;53.848;27.498;2022-10-31T01:39:07;1.5;;;0.7;;
54438;SDS011;40347;53.848;27.498;2022-10-31T01:44:00;2.8;;;0.9;;
54438;SDS011;40347;53.848;27.498;2022-10-31T01:49:04;2.1;;;0.8;;
54438;SDS011;40347;53.848;27.498;2022-10-31T01:53:47;3.7;;;0.9;;
54438;SDS011;40347;53.848;27.498;2022-10-31T01:58:47;3.4;;;1;;
54438;SDS011;40347;53.848;27.498;2022-10-31T02:03:47;2.4;;;0.8;;
54438;SDS011;40347;53.848;27.498;2022-10-31T02:09:03;2.5;;;0.8;;
54438;SDS011;40347;53.848;27.498;2022-10-31T02:13:53;3.2;;;0.8;;
54438;SDS011;40347;53.848;27.498;2022-10-31T02:18:47;3.5;;;1;;
54438;SDS011;40347;53.848;27.498;2022-10-31T02:24:00;5.1;;;1.2;;
54438;SDS011;40347;53.848;27.498;2022-10-31T02:29:10;2.7;;;0.9;;
54438;SDS011;40347;53.848;27.498;2022-10-31T02:33:55;2.5;;;1;;
54438;SDS011;40347;53.848;27.498;2022-10-31T02:38:55;3.1;;;0.8;;
54438;SDS011;40347;53.848;27.498;2022-10-31T02:43:49;3.7;;;0.9;;
54438;SDS011;40347;53.848;27.498;2022-10-31T02:48:47;3.3;;;0.9;;
54438;SDS011;40347;53.848;27.498;2022-10-31T02:54:15;2.8;;;0.9;;
54438;SDS011;40347;53.848;27.498;2022-10-31T02:58:47;4.3;;;0.9;;
54438;SDS011;40347;53.848;27.498;2022-10-31T03:03:51;3.6;;;1;;
54438;SDS011;40347;53.848;27.498;2022-10-31T03:09:10;2.2;;;0.9;;
54438;SDS011;40347;53.848;27.498;2022-10-31T03:13:47;5.1;;;1.1;;
54438;SDS011;40347;53.848;27.498;2022-10-31T03:18:48;2.7;;;1;;
54438;SDS011;40347;53.848;27.498;2022-10-31T03:24:03;3;;;1.2;;
54438;SDS011;40347;53.848;27.498;2022-10-31T03:28:53;2.8;;;1.1;;
54438;SDS011;40347;53.848;27.498;2022-10-31T03:33:53;4.9;;;1.4;;
54438;SDS011;40347;53.848;27.498;2022-10-31T03:38:47;4;;;1.3;;
54438;SDS011;40347;53.848;27.498;2022-10-31T03:43:48;5;;;1.4;;
54438;SDS011;40347;53.848;27.498;2022-10-31T03:48:47;5.2;;;1.4;;
54438;SDS011;40347;53.848;27.498;2022-10-31T03:53:47;5;;;1.3;;
54438;SDS011;40347;53.848;27.498;2022-10-31T03:59:09;3.6;;;1.2;;
54438;SDS011;40347;53.848;27.498;2022-10-31T04:03:47;3.1;;;1.2;;
54438;SDS011;40347;53.848;27.498;2022-10-31T04:08:59;5.2;;;1.3;;
54438;SDS011;40347;53.848;27.498;2022-10-31T04:13:55;4.6;;;1.4;;
54438;SDS011;40347;53.848;27.498;2022-10-31T04:18:47;4.2;;;1.5;;
54438;SDS011;40347;53.848;27.498;2022-10-31T04:24:11;3.8;;;1.5;;
54438;SDS011;40347;53.848;27.498;2022-10-31T04:28:47;3.5;;;1.3;;
54438;SDS011;40347;53.848;27.498;2022-10-31T04:33:59;3.8;;;1.5;;
54438;SDS011;40347;53.848;27.498;2022-10-31T04:39:03;3.5;;;1.5;;
54438;SDS011;40347;53.848;27.498;2022-10-31T04:44:07;3;;;1.3;;
54438;SDS011;40347;53.848;27.498;2022-10-31T04:49:07;3.5;;;1.3;;
54438;SDS011;40347;53.848;27.498;2022-10-31T04:53:59;4.6;;;1.4;;
54438;SDS011;40347;53.848;27.498;2022-10-31T04:59:05;4.4;;;1.6;;
54438;SDS011;40347;53.848;27.498;2022-10-31T05:03:47;4.3;;;1.4;;
54438;SDS011;40347;53.848;27.498;2022-10-31T05:08:47;5.6;;;1.4;;
54438;SDS011;40347;53.848;27.498;2022-10-31T05:13:47;5;;;1.6;;
54438;SDS011;40347;53.848;27.498;2022-10-31T05:18:47;5.3;;;1.7;;
54438;SDS011;40347;53.848;27.498;2022-10-31T05:23:59;4.9;;;1.5;;
54438;SDS011;40347;53.848;27.498;2022-10-31T05:28:55;6.4;;;1.6;;
54438;SDS011;40347;53.848;27.498;2022-10-31T05:34:21;4.9;;;1.5;;
54438;SDS011;40347;53.848;27.498;2022-10-31T05:38:47;5.3;;;1.5;;
54438;SDS011;40347;53.848;27.498;2022-10-31T05:43:47;5.1;;;1.7;;
54438;SDS011;40347;53.848;27.498;2022-10-31T05:48:59;4;;;1.5;;
54438;SDS011;40347;53.848;27.498;2022-10-31T05:54:05;4;;;1.5;;
54438;SDS011;40347;53.848;27.498;2022-10-31T05:58:47;6.2;;;1.6;;
54438;SDS011;40347;53.848;27.498;2022-10-31T06:03:59;4.1;;;1.3;;
54438;SDS011;40347;53.848;27.498;2022-10-31T06:08:47;3.8;;;1.5;;
54438;SDS011;40347;53.848;27.498;2022-10-31T06:13:59;4.5;;;1.4;;
54438;SDS011;40347;53.848;27.498;2022-10-31T06:18:47;4.6;;;1.4;;
54438;SDS011;40347;53.848;27.498;2022-10-31T06:23:55;5.2;;;1.3;;
54438;SDS011;40347;53.848;27.498;2022-10-31T06:28:47;3.7;;;1.4;;
54438;SDS011;40347;53.848;27.498;2022-10-31T06:33:59;4.4;;;1.6;;
54438;SDS011;40347;53.848;27.498;2022-10-31T06:38:47;4.5;;;1.8;;
54438;SDS011;40347;53.848;27.498;2022-10-31T06:44:07;4.7;;;1.6;;
54438;SDS011;40347;53.848;27.498;2022-10-31T06:48:55;4.4;;;1.6;;
54438;SDS011;40347;53.848;27.498;2022-10-31T06:53:59;3.9;;;1.3;;
54438;SDS011;40347;53.848;27.498;2022-10-31T06:58:47;3.9;;;1.4;;
54438;SDS011;40347;53.848;27.498;2022-10-31T07:03:47;5.5;;;1.6;;
54438;SDS011;40347;53.848;27.498;2022-10-31T07:09:05;4.9;;;1.6;;
54438;SDS011;40347;53.848;27.498;2022-10-31T07:13:47;4.3;;;1.4;;
54438;SDS011;40347;53.848;27.498;2022-10-31T07:18:47;3.6;;;1.5;;
54438;SDS011;40347;53.848;27.498;2022-10-31T07:24:09;6.2;;;1.6;;
54438;SDS011;40347;53.848;27.498;2022-10-31T07:28:59;6.9;;;1.6;;
54438;SDS011;40347;53.848;27.498;2022-10-31T07:33:47;5.5;;;1.6;;
54438;SDS011;40347;53.848;27.498;2022-10-31T07:38:55;4.4;;;1.5;;
54438;SDS011;40347;53.848;27.498;2022-10-31T07:43:59;4.8;;;1.6;;
54438;SDS011;40347;53.848;27.498;2022-10-31T07:48:47;4;;;1.5;;
54438;SDS011;40347;53.848;27.498;2022-10-31T07:53:47;4.6;;;1.6;;
54438;SDS011;40347;53.848;27.498;2022-10-31T07:59:07;5.3;;;1.6;;
54438;SDS011;40347;53.848;27.498;2022-10-31T08:03:47;4;;;1.5;;
54438;SDS011;40347;53.848;27.498;2022-10-31T08:08:47;5.7;;;1.7;;
54438;SDS011;40347;53.848;27.498;2022-10-31T08:13:59;5.6;;;1.6;;
54438;SDS011;40347;53.848;27.498;2022-10-31T08:19:11;5.6;;;1.5;;
54438;SDS011;40347;53.848;27.498;2022-10-31T08:23:47;4.2;;;1.4;;
54438;SDS011;40347;53.848;27.498;2022-10-31T08:28:47;6;;;1.6;;
54438;SDS011;40347;53.848;27.498;2022-10-31T08:33:47;4.2;;;1.5;;
54438;SDS011;40347;53.848;27.498;2022-10-31T08:38:59;5.6;;;1.4;;
54438;SDS011;40347;53.848;27.498;2022-10-31T08:43:47;5.8;;;1.6;;
54438;SDS011;40347;53.848;27.498;2022-10-31T08:48:57;6.4;;;1.8;;
54438;SDS011;40347;53.848;27.498;2022-10-31T08:54:05;5.5;;;1.6;;
54438;SDS011;40347;53.848;27.498;2022-10-31T08:58:47;6.1;;;1.7;;
54438;SDS011;40347;53.848;27.498;2022-10-31T09:03:47;6.9;;;1.7;;
54438;SDS011;40347;53.848;27.498;2022-10-31T09:08:47;6.3;;;1.6;;
54438;SDS011;40347;53.848;27.498;2022-10-31T09:13:47;4;;;1.3;;
54438;SDS011;40347;53.848;27.498;2022-10-31T09:18:47;4.9;;;1.3;;
54438;SDS011;40347;53.848;27.498;2022-10-31T09:23:47;4;;;1.2;;
54438;SDS011;40347;53.848;27.498;2022-10-31T09:28:47;3.7;;;1.3;;
54438;SDS011;40347;53.848;27.498;2022-10-31T09:33:47;4.3;;;1.5;;
54438;SDS011;40347;53.848;27.498;2022-10-31T09:38:47;5.5;;;1.4;;
54438;SDS011;40347;53.848;27.498;2022-10-31T09:43:48;4.4;;;1.4;;
54438;SDS011;40347;53.848;27.498;2022-10-31T09:49:03;3.9;;;1.3;;
54438;SDS011;40347;53.848;27.498;2022-10-31T09:53:48;3.4;;;1.2;;
54438;SDS011;40347;53.848;27.498;2022-10-31T09:58:47;6.1;;;1.4;;
54438;SDS011;40347;53.848;27.498;2022-10-31T10:04:14;4.1;;;1.1;;
54438;SDS011;40347;53.848;27.498;2022-10-31T10:08:47;5.4;;;1.2;;
54438;SDS011;40347;53.848;27.498;2022-10-31T10:13:51;5.7;;;1.8;;
54438;SDS011;40347;53.848;27.498;2022-10-31T10:18:53;6.8;;;1.6;;
54438;SDS011;40347;53.848;27.498;2022-10-31T10:24:02;4.3;;;1.4;;
54438;SDS011;40347;53.848;27.498;2022-10-31T10:28:48;4;;;1.4;;
54438;SDS011;40347;53.848;27.498;2022-10-31T10:34:11;6.3;;;1.8;;
54438;SDS011;40347;53.848;27.498;2022-10-31T10:38:49;5.8;;;1.6;;
54438;SDS011;40347;53.848;27.498;2022-10-31T10:43:48;5.5;;;1.7;;
54438;SDS011;40347;53.848;27.498;2022-10-31T10:48:48;5.3;;;1.9;;
54438;SDS011;40347;53.848;27.498;2022-10-31T10:53:50;5.1;;;1.9;;
54438;SDS011;40347;53.848;27.498;2022-10-31T10:58:47;5.9;;;1.9;;
54438;SDS011;40347;53.848;27.498;2022-10-31T11:03:59;4.5;;;1.7;;
54438;SDS011;40347;53.848;27.498;2022-10-31T11:09:08;8.2;;;2.1;;
54438;SDS011;40347;53.848;27.498;2022-10-31T11:13:48;6.5;;;2.1;;
54438;SDS011;40347;53.848;27.498;2022-10-31T11:19:05;5.8;;;2.1;;
54438;SDS011;40347;53.848;27.498;2022-10-31T11:23:47;5.4;;;2;;
54438;SDS011;40347;53.848;27.498;2022-10-31T11:28:59;5;;;1.8;;
54438;SDS011;40347;53.848;27.498;2022-10-31T11:34:00;5.6;;;1.7;;
54438;SDS011;40347;53.848;27.498;2022-10-31T11:38:47;4.8;;;1.5;;
54438;SDS011;40347;53.848;27.498;2022-10-31T11:43:48;5;;;1.5;;
54438;SDS011;40347;53.848;27.498;2022-10-31T11:48:55;5.3;;;1.7;;
54438;SDS011;40347;53.848;27.498;2022-10-31T11:53:59;5.8;;;1.8;;
54438;SDS011;40347;53.848;27.498;2022-10-31T11:59:00;5.3;;;1.7;;
54438;SDS011;40347;53.848;27.498;2022-10-31T12:03:48;5.7;;;1.7;;
54438;SDS011;40347;53.848;27.498;2022-10-31T12:08:47;6;;;1.8;;
54438;SDS011;40347;53.848;27.498;2022-10-31T12:13:50;5;;;1.6;;
54438;SDS011;40347;53.848;27.498;2022-10-31T12:19:11;5.6;;;1.9;;
54438;SDS011;40347;53.848;27.498;2022-10-31T12:23:52;4.3;;;1.6;;
54438;SDS011;40347;53.848;27.498;2022-10-31T12:29:02;6.4;;;1.6;;
54438;SDS011;40347;53.848;27.498;2022-10-31T12:34:19;4.9;;;1.8;;
54438;SDS011;40347;53.848;27.498;2022-10-31T12:38:59;5;;;1.5;;
54438;SDS011;40347;53.848;27.498;2022-10-31T12:44:02;5.6;;;1.7;;
54438;SDS011;40347;53.848;27.498;2022-10-31T12:49:03;5.9;;;2;;
54438;SDS011;40347;53.848;27.498;2022-10-31T12:53:54;6.1;;;1.9;;
54438;SDS011;40347;53.848;27.498;2022-10-31T12:58:56;7.2;;;2.1;;
54438;SDS011;40347;53.848;27.498;2022-10-31T13:03:48;5.5;;;2.1;;
54438;SDS011;40347;53.848;27.498;2022-10-31T13:08:55;6.8;;;2;;
54438;SDS011;40347;53.848;27.498;2022-10-31T13:13:49;5.9;;;2.2;;
54438;SDS011;40347;53.848;27.498;2022-10-31T13:18:48;6.2;;;1.9;;
54438;SDS011;40347;53.848;27.498;2022-10-31T13:23:55;7.4;;;2.1;;
54438;SDS011;40347;53.848;27.498;2022-10-31T13:28:57;5.2;;;1.8;;
54438;SDS011;40347;53.848;27.498;2022-10-31T13:33:48;5.6;;;2;;
54438;SDS011;40347;53.848;27.498;2022-10-31T13:39:12;5.6;;;1.9;;
54438;SDS011;40347;53.848;27.498;2022-10-31T13:44:00;4.7;;;1.8;;
54438;SDS011;40347;53.848;27.498;2022-10-31T13:49:35;6.5;;;2.1;;
54438;SDS011;40347;53.848;27.498;2022-10-31T13:53:57;6.7;;;2;;
54438;SDS011;40347;53.848;27.498;2022-10-31T13:59:16;6.4;;;2;;
54438;SDS011;40347;53.848;27.498;2022-10-31T14:03:47;8.4;;;2;;
54438;SDS011;40347;53.848;27.498;2022-10-31T14:08:48;6.5;;;1.9;;
54438;SDS011;40347;53.848;27.498;2022-10-31T14:13:57;7.6;;;1.9;;
54438;SDS011;40347;53.848;27.498;2022-10-31T14:18:57;5.4;;;2;;
54438;SDS011;40347;53.848;27.498;2022-10-31T14:23:55;5.4;;;1.8;;
54438;SDS011;40347;53.848;27.498;2022-10-31T14:28:47;6.1;;;2;;
54438;SDS011;40347;53.848;27.498;2022-10-31T14:33:55;5.7;;;1.9;;
54438;SDS011;40347;53.848;27.498;2022-10-31T14:38:56;8.4;;;2.2;;
54438;SDS011;40347;53.848;27.498;2022-10-31T14:43:51;5.9;;;2;;
54438;SDS011;40347;53.848;27.498;2022-10-31T14:49:00;6.7;;;2;;
54438;SDS011;40347;53.848;27.498;2022-10-31T14:53:48;5.9;;;2.2;;
54438;SDS011;40347;53.848;27.498;2022-10-31T14:58:47;6.7;;;2.2;;
54438;SDS011;40347;53.848;27.498;2022-10-31T15:03:57;7.4;;;2.3;;
54438;SDS011;40347;53.848;27.498;2022-10-31T15:08:55;6.5;;;2.5;;
54438;SDS011;40347;53.848;27.498;2022-10-31T15:13:47;7.5;;;2.7;;
54438;SDS011;40347;53.848;27.498;2022-10-31T15:19:00;8.8;;;2.8;;
54438;SDS011;40347;53.848;27.498;2022-10-31T15:24:12;7.6;;;2.6;;
54438;SDS011;40347;53.848;27.498;2022-10-31T15:28:56;6.4;;;2.5;;
54438;SDS011;40347;53.848;27.498;2022-10-31T15:33:47;8.3;;;2.8;;
54438;SDS011;40347;53.848;27.498;2022-10-31T15:38:48;10.2;;;2.7;;
54438;SDS011;40347;53.848;27.498;2022-10-31T15:44:00;8;;;2.5;;
54438;SDS011;40347;53.848;27.498;2022-10-31T15:48:47;8.9;;;3;;
54438;SDS011;40347;53.848;27.498;2022-10-31T15:53:55;8.7;;;2.6;;
54438;SDS011;40347;53.848;27.498;2022-10-31T15:58:55;9.3;;;3;;
54438;SDS011;40347;53.848;27.498;2022-10-31T16:04:19;8.7;;;2.9;;
54438;SDS011;40347;53.848;27.498;2022-10-31T16:08:48;7.8;;;3.2;;
54438;SDS011;40347;53.848;27.498;2022-10-31T16:13:56;7.4;;;2.8;;
54438;SDS011;40347;53.848;27.498;2022-10-31T16:18:47;8;;;2.7;;
54438;SDS011;40347;53.848;27.498;2022-10-31T16:23:47;9.6;;;3;;
54438;SDS011;40347;53.848;27.498;2022-10-31T16:28:56;11.5;;;3.5;;
54438;SDS011;40347;53.848;27.498;2022-10-31T16:34:12;10.7;;;3.4;;
54438;SDS011;40347;53.848;27.498;2022-10-31T16:39:21;10.1;;;3.4;;
54438;SDS011;40347;53.848;27.498;2022-10-31T16:43:55;13;;;3.8;;
54438;SDS011;40347;53.848;27.498;2022-10-31T16:49:09;10.5;;;3.5;;
54438;SDS011;40347;53.848;27.498;2022-10-31T16:53:47;10.4;;;3.3;;
54438;SDS011;40347;53.848;27.498;2022-10-31T16:58:47;10.3;;;3.2;;
54438;SDS011;40347;53.848;27.498;2022-10-31T17:03:47;8.9;;;3.2;;
54438;SDS011;40347;53.848;27.498;2022-10-31T17:08:47;8.4;;;3.1;;
54438;SDS011;40347;53.848;27.498;2022-10-31T17:14:07;9;;;3;;
54438;SDS011;40347;53.848;27.498;2022-10-31T17:18:57;9.6;;;3.3;;
54438;SDS011;40347;53.848;27.498;2022-10-31T17:23:59;8.7;;;3;;
54438;SDS011;40347;53.848;27.498;2022-10-31T17:29:07;7.8;;;2.8;;
54438;SDS011;40347;53.848;27.498;2022-10-31T17:33:47;8.5;;;2.8;;
54438;SDS011;40347;53.848;27.498;2022-10-31T17:38:47;9.2;;;2.7;;
54438;SDS011;40347;53.848;27.498;2022-10-31T17:43:47;7.7;;;2.6;;
54438;SDS011;40347;53.848;27.498;2022-10-31T17:48:47;10.5;;;3.3;;
54438;SDS011;40347;53.848;27.498;2022-10-31T17:53:47;9.1;;;3;;
54438;SDS011;40347;53.848;27.498;2022-10-31T17:58:55;9.4;;;3.1;;
54438;SDS011;40347;53.848;27.498;2022-10-31T18:04:09;7.8;;;2.7;;
54438;SDS011;40347;53.848;27.498;2022-10-31T18:08:47;9.8;;;2.7;;
54438;SDS011;40347;53.848;27.498;2022-10-31T18:13:59;8.7;;;2.7;;
54438;SDS011;40347;53.848;27.498;2022-10-31T18:18:48;8.3;;;2.9;;
54438;SDS011;40347;53.848;27.498;2022-10-31T18:23:47;9.1;;;2.8;;
54438;SDS011;40347;53.848;27.498;2022-10-31T18:28:55;7.2;;;2.6;;
54438;SDS011;40347;53.848;27.498;2022-10-31T18:33:47;6.9;;;2.5;;
54438;SDS011;40347;53.848;27.498;2022-10-31T18:38:47;6.9;;;2.5;;
54438;SDS011;40347;53.848;27.498;2022-10-31T18:43:59;6.7;;;2.5;;
54438;SDS011;40347;53.848;27.498;2022-10-31T18:49:09;6.4;;;2.4;;
54438;SDS011;40347;53.848;27.498;2022-10-31T18:54:07;8.5;;;2.6;;
54438;SDS011;40347;53.848;27.498;2022-10-31T18:58:47;7.8;;;2.6;;
54438;SDS011;40347;53.848;27.498;2022-10-31T19:04:11;8.9;;;2.7;;
54438;SDS011;40347;53.848;27.498;2022-10-31T19:09:00;10.1;;;2.7;;
54438;SDS011;40347;53.848;27.498;2022-10-31T19:13:55;8.2;;;2.6;;
54438;SDS011;40347;53.848;27.498;2022-10-31T19:18:47;7.8;;;2.8;;
54438;SDS011;40347;53.848;27.498;2022-10-31T19:23:47;7.4;;;2.7;;
54438;SDS011;40347;53.848;27.498;2022-10-31T19:28:59;7.5;;;2.8;;
54438;SDS011;40347;53.848;27.498;2022-10-31T19:33:55;8.7;;;2.9;;
54438;SDS011;40347;53.848;27.498;2022-10-31T19:39:21;8;;;2.7;;
54438;SDS011;40347;53.848;27.498;2022-10-31T19:43:48;10.1;;;3;;
54438;SDS011;40347;53.848;27.498;2022-10-31T19:48:55;9.3;;;3.1;;
54438;SDS011;40347;53.848;27.498;2022-10-31T19:53:55;9.4;;;3;;
54438;SDS011;40347;53.848;27.498;2022-10-31T19:58:47;9.7;;;3;;
54438;SDS011;40347;53.848;27.498;2022-10-31T20:03:55;8.6;;;3;;
54438;SDS011;40347;53.848;27.498;2022-10-31T20:09:08;8.9;;;3.1;;
54438;SDS011;40347;53.848;27.498;2022-10-31T20:13:59;7.9;;;2.9;;
54438;SDS011;40347;53.848;27.498;2022-10-31T20:18:47;10.2;;;2.9;;
54438;SDS011;40347;53.848;27.498;2022-10-31T20:23:47;11.6;;;4;;
54438;SDS011;40347;53.848;27.498;2022-10-31T20:29:05;12.5;;;3.7;;
54438;SDS011;40347;53.848;27.498;2022-10-31T20:33:47;12.6;;;3.6;;
54438;SDS011;40347;53.848;27.498;2022-10-31T20:38:48;9.5;;;3.2;;
54438;SDS011;40347;53.848;27.498;2022-10-31T20:43:47;9.3;;;3.1;;
54438;SDS011;40347;53.848;27.498;2022-10-31T20:49:07;8.6;;;3;;
54438;SDS011;40347;53.848;27.498;2022-10-31T20:53:57;9.4;;;3.4;;
54438;SDS011;40347;53.848;27.498;2022-10-31T20:58:47;8.9;;;3;;
54438;SDS011;40347;53.848;27.498;2022-10-31T21:03:55;8.2;;;3.3;;
54438;SDS011;40347;53.848;27.498;2022-10-31T21:08:47;12.1;;;3.7;;
54438;SDS011;40347;53.848;27.498;2022-10-31T21:13:47;9.3;;;3.3;;
54438;SDS011;40347;53.848;27.498;2022-10-31T21:18:59;8.6;;;3.1;;
54438;SDS011;40347;53.848;27.498;2022-10-31T21:24:10;10.2;;;3.6;;
54438;SDS011;40347;53.848;27.498;2022-10-31T21:28:47;14.8;;;4.1;;
54438;SDS011;40347;53.848;27.498;2022-10-31T21:33:47;10.8;;;3.7;;
54438;SDS011;40347;53.848;27.498;2022-10-31T21:38:59;10.9;;;4.2;;
54438;SDS011;40347;53.848;27.498;2022-10-31T21:43:57;11.8;;;4.4;;
54438;SDS011;40347;53.848;27.498;2022-10-31T21:48:47;14.2;;;4.8;;
54438;SDS011;40347;53.848;27.498;2022-10-31T21:53:48;11.5;;;4.5;;
54438;SDS011;40347;53.848;27.498;2022-10-31T21:58:47;12.4;;;5;;
54438;SDS011;40347;53.848;27.498;2022-10-31T22:04:11;14;;;5;;
54438;SDS011;40347;53.848;27.498;2022-10-31T22:08:56;11.7;;;4.7;;
54438;SDS011;40347;53.848;27.498;2022-10-31T22:13:48;12.4;;;4.1;;
54438;SDS011;40347;53.848;27.498;2022-10-31T22:18:56;11.4;;;4.4;;
54438;SDS011;40347;53.848;27.498;2022-10-31T22:23:48;12.2;;;4.1;;
54438;SDS011;40347;53.848;27.498;2022-10-31T22:28:48;10.5;;;3.8;;
54438;SDS011;40347;53.848;27.498;2022-10-31T22:34:33;10.4;;;3.9;;
54438;SDS011;40347;53.848;27.498;2022-10-31T22:38:47;9.8;;;3.8;;
54438;SDS011;40347;53.848;27.498;2022-10-31T22:43:47;9.4;;;3.9;;
54438;SDS011;40347;53.848;27.498;2022-10-31T22:49:10;14.6;;;4.6;;
54438;SDS011;40347;53.848;27.498;2022-10-31T22:53:59;16.1;;;5.3;;
54438;SDS011;40347;53.848;27.498;2022-10-31T22:58:55;13.6;;;5.2;;
54438;SDS011;40347;53.848;27.498;2022-10-31T23:03:47;13.4;;;5.5;;
54438;SDS011;40347;53.848;27.498;2022-10-31T23:09:06;14;;;5.5;;
54438;SDS011;40347;53.848;27.498;2022-10-31T23:13:48;12.9;;;5.5;;
54438;SDS011;40347;53.848;27.498;2022-10-31T23:18:55;14.4;;;5.9;;
54438;SDS011;40347;53.848;27.498;2022-10-31T23:23:55;12.8;;;4.7;;
54438;SDS011;40347;53.848;27.498;2022-10-31T23:28:47;14.7;;;5.1;;
54438;SDS011;40347;53.848;27.498;2022-10-31T23:33:47;13.2;;;4.9;;
54438;SDS011;40347;53.848;27.498;2022-10-31T23:38:57;11.5;;;4.5;;
54438;SDS011;40347;53.848;27.498;2022-10-31T23:43:48;13.3;;;4.3;;
54438;SDS011;40347;53.848;27.498;2022-10-31T23:48:47;12.2;;;4.2;;
54438;SDS011;40347;53.848;27.498;2022-10-31T23:53:55;11.5;;;4.2;;
54438;SDS011;40347;53.848;27.498;2022-10-31T23:58:55;11.4;;;4;;
